sensor_id;sensor_type;location;lat;lon;timestamp;P1;durP1;ratioP1;P2;durP2;ratioP2
67861;SDS011;54665;51.462;6.698;2024-01-25T00:01:26;20.43;;;3.27;;
67861;SDS011;54665;51.462;6.698;2024-01-25T00:03:26;24.23;;;3.67;;
67861;SDS011;54665;51.462;6.698;2024-01-25T00:05:26;25.03;;;3.07;;
67861;SDS011;54665;51.462;6.698;2024-01-25T00:07:27;25.77;;;3.73;;
67861;SDS011;54665;51.462;6.698;2024-01-25T00:09:27;22.70;;;4.10;;
67861;SDS011;54665;51.462;6.698;2024-01-25T00:11:27;26.67;;;3.37;;
67861;SDS011;54665;51.462;6.698;2024-01-25T00:13:28;24.90;;;2.93;;
67861;SDS011;54665;51.462;6.698;2024-01-25T00:15:28;25.77;;;3.57;;
67861;SDS011;54665;51.462;6.698;2024-01-25T00:17:28;22.43;;;3.70;;
67861;SDS011;54665;51.462;6.698;2024-01-25T00:19:29;22.50;;;3.13;;
67861;SDS011;54665;51.462;6.698;2024-01-25T00:21:29;20.37;;;3.57;;
67861;SDS011;54665;51.462;6.698;2024-01-25T00:23:29;24.53;;;3.17;;
67861;SDS011;54665;51.462;6.698;2024-01-25T00:25:29;21.47;;;2.80;;
67861;SDS011;54665;51.462;6.698;2024-01-25T00:27:30;22.30;;;3.37;;
67861;SDS011;54665;51.462;6.698;2024-01-25T00:29:30;23.00;;;3.00;;
67861;SDS011;54665;51.462;6.698;2024-01-25T00:31:31;23.27;;;3.33;;
67861;SDS011;54665;51.462;6.698;2024-01-25T00:33:31;20.77;;;3.23;;
67861;SDS011;54665;51.462;6.698;2024-01-25T00:35:31;22.60;;;3.20;;
67861;SDS011;54665;51.462;6.698;2024-01-25T00:37:32;27.23;;;3.37;;
67861;SDS011;54665;51.462;6.698;2024-01-25T00:39:33;22.45;;;3.33;;
67861;SDS011;54665;51.462;6.698;2024-01-25T00:41:33;24.70;;;3.20;;
67861;SDS011;54665;51.462;6.698;2024-01-25T00:43:34;21.95;;;3.10;;
67861;SDS011;54665;51.462;6.698;2024-01-25T00:45:35;21.50;;;3.20;;
67861;SDS011;54665;51.462;6.698;2024-01-25T00:47:36;22.80;;;3.17;;
67861;SDS011;54665;51.462;6.698;2024-01-25T00:49:36;21.23;;;3.37;;
67861;SDS011;54665;51.462;6.698;2024-01-25T00:51:37;18.60;;;3.35;;
67861;SDS011;54665;51.462;6.698;2024-01-25T00:53:39;24.15;;;3.30;;
67861;SDS011;54665;51.462;6.698;2024-01-25T00:55:40;19.27;;;2.90;;
67861;SDS011;54665;51.462;6.698;2024-01-25T00:57:40;16.23;;;2.70;;
67861;SDS011;54665;51.462;6.698;2024-01-25T00:59:41;19.77;;;3.10;;
67861;SDS011;54665;51.462;6.698;2024-01-25T01:01:41;24.73;;;2.93;;
67861;SDS011;54665;51.462;6.698;2024-01-25T01:03:46;27.58;;;3.17;;
67861;SDS011;54665;51.462;6.698;2024-01-25T01:05:46;21.73;;;2.92;;
67861;SDS011;54665;51.462;6.698;2024-01-25T01:07:47;22.90;;;3.30;;
67861;SDS011;54665;51.462;6.698;2024-01-25T01:09:48;23.07;;;3.23;;
67861;SDS011;54665;51.462;6.698;2024-01-25T01:11:48;27.27;;;3.13;;
67861;SDS011;54665;51.462;6.698;2024-01-25T01:13:48;25.57;;;3.40;;
67861;SDS011;54665;51.462;6.698;2024-01-25T01:15:48;22.60;;;2.93;;
67861;SDS011;54665;51.462;6.698;2024-01-25T01:17:49;25.20;;;3.67;;
67861;SDS011;54665;51.462;6.698;2024-01-25T01:19:49;25.33;;;3.37;;
67861;SDS011;54665;51.462;6.698;2024-01-25T01:21:49;25.20;;;3.23;;
67861;SDS011;54665;51.462;6.698;2024-01-25T01:23:50;25.53;;;3.13;;
67861;SDS011;54665;51.462;6.698;2024-01-25T01:25:50;21.45;;;3.15;;
67861;SDS011;54665;51.462;6.698;2024-01-25T01:27:50;21.57;;;3.07;;
67861;SDS011;54665;51.462;6.698;2024-01-25T01:29:51;27.63;;;3.30;;
67861;SDS011;54665;51.462;6.698;2024-01-25T01:31:51;26.27;;;3.30;;
67861;SDS011;54665;51.462;6.698;2024-01-25T01:33:51;22.00;;;3.00;;
67861;SDS011;54665;51.462;6.698;2024-01-25T01:35:51;23.53;;;3.07;;
67861;SDS011;54665;51.462;6.698;2024-01-25T01:37:52;25.43;;;3.43;;
67861;SDS011;54665;51.462;6.698;2024-01-25T01:39:52;23.07;;;3.70;;
67861;SDS011;54665;51.462;6.698;2024-01-25T01:41:52;32.63;;;3.40;;
67861;SDS011;54665;51.462;6.698;2024-01-25T01:43:53;25.75;;;3.92;;
67861;SDS011;54665;51.462;6.698;2024-01-25T01:45:54;22.73;;;3.03;;
67861;SDS011;54665;51.462;6.698;2024-01-25T01:48:06;29.52;;;3.35;;
67861;SDS011;54665;51.462;6.698;2024-01-25T01:50:07;25.50;;;3.03;;
67861;SDS011;54665;51.462;6.698;2024-01-25T01:52:09;28.90;;;3.13;;
67861;SDS011;54665;51.462;6.698;2024-01-25T01:54:10;20.75;;;3.47;;
67861;SDS011;54665;51.462;6.698;2024-01-25T01:56:11;22.80;;;3.53;;
67861;SDS011;54665;51.462;6.698;2024-01-25T01:58:11;24.00;;;2.97;;
67861;SDS011;54665;51.462;6.698;2024-01-25T02:00:11;21.57;;;3.03;;
67861;SDS011;54665;51.462;6.698;2024-01-25T02:02:14;20.45;;;3.38;;
67861;SDS011;54665;51.462;6.698;2024-01-25T02:04:15;24.10;;;3.20;;
67861;SDS011;54665;51.462;6.698;2024-01-25T02:06:15;19.07;;;3.43;;
67861;SDS011;54665;51.462;6.698;2024-01-25T02:08:15;25.98;;;3.25;;
67861;SDS011;54665;51.462;6.698;2024-01-25T02:10:16;27.83;;;3.50;;
67861;SDS011;54665;51.462;6.698;2024-01-25T02:12:16;19.17;;;3.43;;
67861;SDS011;54665;51.462;6.698;2024-01-25T02:14:16;25.63;;;2.97;;
67861;SDS011;54665;51.462;6.698;2024-01-25T02:16:16;24.13;;;2.90;;
67861;SDS011;54665;51.462;6.698;2024-01-25T02:18:17;20.93;;;3.30;;
67861;SDS011;54665;51.462;6.698;2024-01-25T02:20:18;21.30;;;2.70;;
67861;SDS011;54665;51.462;6.698;2024-01-25T02:22:18;21.05;;;3.13;;
67861;SDS011;54665;51.462;6.698;2024-01-25T02:24:19;13.63;;;2.45;;
67861;SDS011;54665;51.462;6.698;2024-01-25T02:26:20;21.43;;;3.43;;
67861;SDS011;54665;51.462;6.698;2024-01-25T02:28:20;19.40;;;3.33;;
67861;SDS011;54665;51.462;6.698;2024-01-25T02:30:20;17.67;;;2.60;;
67861;SDS011;54665;51.462;6.698;2024-01-25T02:32:20;24.87;;;3.20;;
67861;SDS011;54665;51.462;6.698;2024-01-25T02:34:21;21.13;;;2.67;;
67861;SDS011;54665;51.462;6.698;2024-01-25T02:36:24;29.10;;;3.10;;
67861;SDS011;54665;51.462;6.698;2024-01-25T02:38:24;20.47;;;3.13;;
67861;SDS011;54665;51.462;6.698;2024-01-25T02:40:25;24.08;;;2.92;;
67861;SDS011;54665;51.462;6.698;2024-01-25T02:42:25;26.97;;;3.07;;
67861;SDS011;54665;51.462;6.698;2024-01-25T02:44:25;29.20;;;2.97;;
67861;SDS011;54665;51.462;6.698;2024-01-25T02:46:26;23.43;;;2.90;;
67861;SDS011;54665;51.462;6.698;2024-01-25T02:48:26;25.27;;;3.40;;
67861;SDS011;54665;51.462;6.698;2024-01-25T02:50:27;20.20;;;2.87;;
67861;SDS011;54665;51.462;6.698;2024-01-25T02:52:27;22.20;;;3.15;;
67861;SDS011;54665;51.462;6.698;2024-01-25T02:54:27;33.07;;;4.03;;
67861;SDS011;54665;51.462;6.698;2024-01-25T02:56:28;31.33;;;3.60;;
67861;SDS011;54665;51.462;6.698;2024-01-25T02:58:28;26.17;;;3.03;;
67861;SDS011;54665;51.462;6.698;2024-01-25T03:00:28;18.63;;;2.80;;
67861;SDS011;54665;51.462;6.698;2024-01-25T03:02:29;24.42;;;3.50;;
67861;SDS011;54665;51.462;6.698;2024-01-25T03:04:29;19.30;;;3.00;;
67861;SDS011;54665;51.462;6.698;2024-01-25T03:06:30;24.23;;;3.43;;
67861;SDS011;54665;51.462;6.698;2024-01-25T03:08:30;24.52;;;3.30;;
67861;SDS011;54665;51.462;6.698;2024-01-25T03:10:30;27.70;;;3.23;;
67861;SDS011;54665;51.462;6.698;2024-01-25T03:12:31;22.00;;;2.93;;
67861;SDS011;54665;51.462;6.698;2024-01-25T03:14:31;34.43;;;3.63;;
67861;SDS011;54665;51.462;6.698;2024-01-25T03:16:32;26.23;;;3.23;;
67861;SDS011;54665;51.462;6.698;2024-01-25T03:18:32;22.67;;;3.30;;
67861;SDS011;54665;51.462;6.698;2024-01-25T03:20:32;26.43;;;3.50;;
67861;SDS011;54665;51.462;6.698;2024-01-25T03:22:33;25.97;;;3.03;;
67861;SDS011;54665;51.462;6.698;2024-01-25T03:24:33;24.23;;;2.90;;
67861;SDS011;54665;51.462;6.698;2024-01-25T03:26:37;31.33;;;3.00;;
67861;SDS011;54665;51.462;6.698;2024-01-25T03:28:38;30.67;;;3.07;;
67861;SDS011;54665;51.462;6.698;2024-01-25T03:30:38;28.17;;;3.00;;
67861;SDS011;54665;51.462;6.698;2024-01-25T03:32:38;32.70;;;3.47;;
67861;SDS011;54665;51.462;6.698;2024-01-25T03:34:38;24.47;;;3.40;;
67861;SDS011;54665;51.462;6.698;2024-01-25T03:36:39;21.83;;;2.93;;
67861;SDS011;54665;51.462;6.698;2024-01-25T03:38:40;30.95;;;3.17;;
67861;SDS011;54665;51.462;6.698;2024-01-25T03:40:40;23.40;;;2.77;;
67861;SDS011;54665;51.462;6.698;2024-01-25T03:42:40;29.97;;;3.97;;
67861;SDS011;54665;51.462;6.698;2024-01-25T03:44:41;21.27;;;3.03;;
67861;SDS011;54665;51.462;6.698;2024-01-25T03:46:41;25.90;;;2.90;;
67861;SDS011;54665;51.462;6.698;2024-01-25T03:48:41;29.40;;;3.90;;
67861;SDS011;54665;51.462;6.698;2024-01-25T03:50:42;31.63;;;3.40;;
67861;SDS011;54665;51.462;6.698;2024-01-25T03:52:43;25.55;;;2.95;;
67861;SDS011;54665;51.462;6.698;2024-01-25T03:54:43;26.17;;;3.10;;
67861;SDS011;54665;51.462;6.698;2024-01-25T03:56:43;31.57;;;3.17;;
67861;SDS011;54665;51.462;6.698;2024-01-25T03:58:44;25.60;;;3.23;;
67861;SDS011;54665;51.462;6.698;2024-01-25T04:00:44;29.17;;;3.40;;
67861;SDS011;54665;51.462;6.698;2024-01-25T04:02:45;23.33;;;3.30;;
67861;SDS011;54665;51.462;6.698;2024-01-25T04:04:45;21.47;;;2.90;;
67861;SDS011;54665;51.462;6.698;2024-01-25T04:06:45;23.50;;;3.30;;
67861;SDS011;54665;51.462;6.698;2024-01-25T04:08:46;23.80;;;3.20;;
67861;SDS011;54665;51.462;6.698;2024-01-25T04:10:46;24.33;;;3.10;;
67861;SDS011;54665;51.462;6.698;2024-01-25T04:12:46;28.20;;;3.50;;
67861;SDS011;54665;51.462;6.698;2024-01-25T04:14:46;23.98;;;3.03;;
67861;SDS011;54665;51.462;6.698;2024-01-25T04:16:48;22.57;;;2.77;;
67861;SDS011;54665;51.462;6.698;2024-01-25T04:18:49;24.33;;;3.72;;
67861;SDS011;54665;51.462;6.698;2024-01-25T04:20:49;23.00;;;3.23;;
67861;SDS011;54665;51.462;6.698;2024-01-25T04:22:50;25.53;;;3.40;;
67861;SDS011;54665;51.462;6.698;2024-01-25T04:24:50;23.50;;;3.37;;
67861;SDS011;54665;51.462;6.698;2024-01-25T04:26:50;24.83;;;2.70;;
67861;SDS011;54665;51.462;6.698;2024-01-25T04:28:50;21.20;;;2.77;;
67861;SDS011;54665;51.462;6.698;2024-01-25T04:30:51;21.50;;;3.43;;
67861;SDS011;54665;51.462;6.698;2024-01-25T04:32:51;20.02;;;2.83;;
67861;SDS011;54665;51.462;6.698;2024-01-25T04:34:51;18.27;;;2.53;;
67861;SDS011;54665;51.462;6.698;2024-01-25T04:36:52;25.17;;;3.17;;
67861;SDS011;54665;51.462;6.698;2024-01-25T04:38:52;30.07;;;4.10;;
67861;SDS011;54665;51.462;6.698;2024-01-25T04:40:52;29.47;;;3.17;;
67861;SDS011;54665;51.462;6.698;2024-01-25T04:42:53;33.53;;;3.87;;
67861;SDS011;54665;51.462;6.698;2024-01-25T04:44:53;22.20;;;3.37;;
67861;SDS011;54665;51.462;6.698;2024-01-25T04:46:53;32.13;;;3.75;;
67861;SDS011;54665;51.462;6.698;2024-01-25T04:48:54;24.90;;;3.07;;
67861;SDS011;54665;51.462;6.698;2024-01-25T04:50:55;25.27;;;3.50;;
67861;SDS011;54665;51.462;6.698;2024-01-25T04:52:56;27.83;;;3.38;;
67861;SDS011;54665;51.462;6.698;2024-01-25T04:54:57;24.80;;;3.27;;
67861;SDS011;54665;51.462;6.698;2024-01-25T04:56:57;29.80;;;3.40;;
67861;SDS011;54665;51.462;6.698;2024-01-25T04:58:57;26.40;;;3.17;;
67861;SDS011;54665;51.462;6.698;2024-01-25T05:00:58;31.03;;;3.57;;
67861;SDS011;54665;51.462;6.698;2024-01-25T05:02:58;26.77;;;3.60;;
67861;SDS011;54665;51.462;6.698;2024-01-25T05:04:58;27.00;;;3.27;;
67861;SDS011;54665;51.462;6.698;2024-01-25T05:06:58;29.60;;;3.80;;
67861;SDS011;54665;51.462;6.698;2024-01-25T05:08:59;25.90;;;3.23;;
67861;SDS011;54665;51.462;6.698;2024-01-25T05:10:59;29.27;;;3.93;;
67861;SDS011;54665;51.462;6.698;2024-01-25T05:13:00;29.93;;;3.37;;
67861;SDS011;54665;51.462;6.698;2024-01-25T05:15:00;23.57;;;3.77;;
67861;SDS011;54665;51.462;6.698;2024-01-25T05:17:00;29.07;;;4.07;;
67861;SDS011;54665;51.462;6.698;2024-01-25T05:19:00;34.00;;;7.30;;
67861;SDS011;54665;51.462;6.698;2024-01-25T05:21:01;34.63;;;7.10;;
67861;SDS011;54665;51.462;6.698;2024-01-25T05:23:01;36.07;;;5.20;;
67861;SDS011;54665;51.462;6.698;2024-01-25T05:25:02;29.67;;;3.85;;
67861;SDS011;54665;51.462;6.698;2024-01-25T05:27:02;30.97;;;4.53;;
67861;SDS011;54665;51.462;6.698;2024-01-25T05:29:03;28.97;;;3.73;;
67861;SDS011;54665;51.462;6.698;2024-01-25T05:31:03;40.83;;;4.40;;
67861;SDS011;54665;51.462;6.698;2024-01-25T05:33:03;27.57;;;4.17;;
67861;SDS011;54665;51.462;6.698;2024-01-25T05:35:04;35.25;;;3.92;;
67861;SDS011;54665;51.462;6.698;2024-01-25T05:37:06;34.53;;;4.13;;
67861;SDS011;54665;51.462;6.698;2024-01-25T05:39:07;28.23;;;3.83;;
67861;SDS011;54665;51.462;6.698;2024-01-25T05:41:07;40.22;;;4.25;;
67861;SDS011;54665;51.462;6.698;2024-01-25T05:43:08;35.77;;;4.43;;
67861;SDS011;54665;51.462;6.698;2024-01-25T05:45:08;28.93;;;3.73;;
67861;SDS011;54665;51.462;6.698;2024-01-25T05:47:09;30.42;;;4.00;;
67861;SDS011;54665;51.462;6.698;2024-01-25T05:49:09;33.00;;;4.40;;
67861;SDS011;54665;51.462;6.698;2024-01-25T05:51:09;33.13;;;4.70;;
67861;SDS011;54665;51.462;6.698;2024-01-25T05:53:10;30.00;;;4.47;;
67861;SDS011;54665;51.462;6.698;2024-01-25T05:55:10;25.23;;;3.77;;
67861;SDS011;54665;51.462;6.698;2024-01-25T05:57:10;29.25;;;4.15;;
67861;SDS011;54665;51.462;6.698;2024-01-25T05:59:11;31.20;;;4.23;;
67861;SDS011;54665;51.462;6.698;2024-01-25T06:01:11;36.53;;;4.00;;
67861;SDS011;54665;51.462;6.698;2024-01-25T06:03:11;29.13;;;3.97;;
67861;SDS011;54665;51.462;6.698;2024-01-25T06:05:12;30.07;;;4.10;;
67861;SDS011;54665;51.462;6.698;2024-01-25T06:07:12;30.77;;;4.07;;
67861;SDS011;54665;51.462;6.698;2024-01-25T06:09:12;28.52;;;4.40;;
67861;SDS011;54665;51.462;6.698;2024-01-25T06:11:13;24.53;;;4.30;;
67861;SDS011;54665;51.462;6.698;2024-01-25T06:13:13;33.03;;;4.70;;
67861;SDS011;54665;51.462;6.698;2024-01-25T06:15:13;37.63;;;4.43;;
67861;SDS011;54665;51.462;6.698;2024-01-25T06:17:14;33.27;;;4.37;;
67861;SDS011;54665;51.462;6.698;2024-01-25T06:19:14;33.73;;;3.67;;
67861;SDS011;54665;51.462;6.698;2024-01-25T06:21:14;27.10;;;3.83;;
67861;SDS011;54665;51.462;6.698;2024-01-25T06:23:15;33.63;;;3.72;;
67861;SDS011;54665;51.462;6.698;2024-01-25T06:25:15;27.43;;;4.20;;
67861;SDS011;54665;51.462;6.698;2024-01-25T06:27:15;25.63;;;4.30;;
67861;SDS011;54665;51.462;6.698;2024-01-25T06:29:16;30.50;;;4.57;;
67861;SDS011;54665;51.462;6.698;2024-01-25T06:31:16;36.83;;;4.37;;
67861;SDS011;54665;51.462;6.698;2024-01-25T06:33:16;34.23;;;4.70;;
67861;SDS011;54665;51.462;6.698;2024-01-25T06:35:17;28.10;;;4.13;;
67861;SDS011;54665;51.462;6.698;2024-01-25T06:37:17;39.10;;;5.18;;
67861;SDS011;54665;51.462;6.698;2024-01-25T06:39:17;26.37;;;4.17;;
67861;SDS011;54665;51.462;6.698;2024-01-25T06:41:17;36.43;;;4.40;;
67861;SDS011;54665;51.462;6.698;2024-01-25T06:43:18;32.23;;;4.60;;
67861;SDS011;54665;51.462;6.698;2024-01-25T06:45:18;30.77;;;4.13;;
67861;SDS011;54665;51.462;6.698;2024-01-25T06:47:18;34.63;;;4.63;;
67861;SDS011;54665;51.462;6.698;2024-01-25T06:49:19;40.77;;;5.27;;
67861;SDS011;54665;51.462;6.698;2024-01-25T06:51:19;41.67;;;4.87;;
67861;SDS011;54665;51.462;6.698;2024-01-25T06:53:20;32.33;;;5.17;;
67861;SDS011;54665;51.462;6.698;2024-01-25T06:55:21;41.15;;;5.38;;
67861;SDS011;54665;51.462;6.698;2024-01-25T06:57:21;35.67;;;4.97;;
67861;SDS011;54665;51.462;6.698;2024-01-25T06:59:22;36.08;;;4.90;;
67861;SDS011;54665;51.462;6.698;2024-01-25T07:01:22;41.73;;;5.53;;
67861;SDS011;54665;51.462;6.698;2024-01-25T07:03:23;46.05;;;5.80;;
67861;SDS011;54665;51.462;6.698;2024-01-25T07:05:23;45.13;;;5.20;;
67861;SDS011;54665;51.462;6.698;2024-01-25T07:07:24;34.83;;;5.10;;
67861;SDS011;54665;51.462;6.698;2024-01-25T07:09:24;36.50;;;5.30;;
67861;SDS011;54665;51.462;6.698;2024-01-25T07:11:25;43.08;;;5.55;;
67861;SDS011;54665;51.462;6.698;2024-01-25T07:13:25;32.17;;;5.00;;
67861;SDS011;54665;51.462;6.698;2024-01-25T07:15:25;33.70;;;4.87;;
67861;SDS011;54665;51.462;6.698;2024-01-25T07:17:26;39.60;;;4.77;;
67861;SDS011;54665;51.462;6.698;2024-01-25T07:19:26;46.40;;;5.53;;
67861;SDS011;54665;51.462;6.698;2024-01-25T07:21:26;33.80;;;4.87;;
67861;SDS011;54665;51.462;6.698;2024-01-25T07:23:28;28.87;;;4.77;;
67861;SDS011;54665;51.462;6.698;2024-01-25T07:25:30;39.72;;;4.70;;
67861;SDS011;54665;51.462;6.698;2024-01-25T07:27:30;37.87;;;5.70;;
67861;SDS011;54665;51.462;6.698;2024-01-25T07:29:30;41.00;;;6.10;;
67861;SDS011;54665;51.462;6.698;2024-01-25T07:31:31;42.43;;;5.97;;
67861;SDS011;54665;51.462;6.698;2024-01-25T07:33:31;41.03;;;5.97;;
67861;SDS011;54665;51.462;6.698;2024-01-25T07:35:31;38.10;;;5.07;;
67861;SDS011;54665;51.462;6.698;2024-01-25T07:37:32;41.07;;;4.70;;
67861;SDS011;54665;51.462;6.698;2024-01-25T07:39:32;38.93;;;5.30;;
67861;SDS011;54665;51.462;6.698;2024-01-25T07:41:32;42.37;;;4.97;;
67861;SDS011;54665;51.462;6.698;2024-01-25T07:43:33;30.43;;;4.93;;
67861;SDS011;54665;51.462;6.698;2024-01-25T07:45:33;28.03;;;5.03;;
67861;SDS011;54665;51.462;6.698;2024-01-25T07:47:33;33.28;;;5.70;;
67861;SDS011;54665;51.462;6.698;2024-01-25T07:49:33;44.93;;;5.37;;
67861;SDS011;54665;51.462;6.698;2024-01-25T07:51:34;41.47;;;5.37;;
67861;SDS011;54665;51.462;6.698;2024-01-25T07:53:34;45.43;;;5.53;;
67861;SDS011;54665;51.462;6.698;2024-01-25T07:55:34;36.00;;;5.37;;
67861;SDS011;54665;51.462;6.698;2024-01-25T07:57:35;31.57;;;5.00;;
67861;SDS011;54665;51.462;6.698;2024-01-25T07:59:35;34.77;;;5.17;;
67861;SDS011;54665;51.462;6.698;2024-01-25T08:01:35;46.07;;;6.10;;
67861;SDS011;54665;51.462;6.698;2024-01-25T08:03:36;34.33;;;5.00;;
67861;SDS011;54665;51.462;6.698;2024-01-25T08:05:36;38.55;;;4.50;;
67861;SDS011;54665;51.462;6.698;2024-01-25T08:07:37;32.30;;;5.60;;
67861;SDS011;54665;51.462;6.698;2024-01-25T08:09:37;41.73;;;5.40;;
67861;SDS011;54665;51.462;6.698;2024-01-25T08:11:37;43.27;;;5.40;;
67861;SDS011;54665;51.462;6.698;2024-01-25T08:13:38;22.20;;;4.90;;
67861;SDS011;54665;51.462;6.698;2024-01-25T08:15:38;40.37;;;6.50;;
67861;SDS011;54665;51.462;6.698;2024-01-25T08:17:38;29.43;;;6.17;;
67861;SDS011;54665;51.462;6.698;2024-01-25T08:19:39;47.30;;;6.73;;
67861;SDS011;54665;51.462;6.698;2024-01-25T08:21:39;29.60;;;6.00;;
67861;SDS011;54665;51.462;6.698;2024-01-25T08:23:39;41.93;;;6.60;;
67861;SDS011;54665;51.462;6.698;2024-01-25T08:25:40;45.08;;;7.03;;
67861;SDS011;54665;51.462;6.698;2024-01-25T08:27:41;42.88;;;6.20;;
67861;SDS011;54665;51.462;6.698;2024-01-25T08:29:41;39.03;;;7.27;;
67861;SDS011;54665;51.462;6.698;2024-01-25T08:31:41;34.50;;;5.57;;
67861;SDS011;54665;51.462;6.698;2024-01-25T08:33:42;33.37;;;6.33;;
67861;SDS011;54665;51.462;6.698;2024-01-25T08:35:42;43.87;;;6.63;;
67861;SDS011;54665;51.462;6.698;2024-01-25T08:37:42;30.80;;;6.47;;
67861;SDS011;54665;51.462;6.698;2024-01-25T08:39:43;33.58;;;6.85;;
67861;SDS011;54665;51.462;6.698;2024-01-25T08:41:43;34.77;;;7.07;;
67861;SDS011;54665;51.462;6.698;2024-01-25T08:43:44;35.53;;;6.87;;
67861;SDS011;54665;51.462;6.698;2024-01-25T08:45:44;38.07;;;6.60;;
67861;SDS011;54665;51.462;6.698;2024-01-25T08:47:44;40.97;;;7.17;;
67861;SDS011;54665;51.462;6.698;2024-01-25T08:49:45;44.17;;;7.43;;
67861;SDS011;54665;51.462;6.698;2024-01-25T08:51:45;39.65;;;7.13;;
67861;SDS011;54665;51.462;6.698;2024-01-25T08:53:45;34.27;;;7.10;;
67861;SDS011;54665;51.462;6.698;2024-01-25T08:55:46;48.23;;;7.57;;
67861;SDS011;54665;51.462;6.698;2024-01-25T08:57:46;38.43;;;7.07;;
67861;SDS011;54665;51.462;6.698;2024-01-25T08:59:47;40.95;;;7.60;;
67861;SDS011;54665;51.462;6.698;2024-01-25T09:01:48;42.33;;;7.57;;
67861;SDS011;54665;51.462;6.698;2024-01-25T09:03:48;39.93;;;7.20;;
67861;SDS011;54665;51.462;6.698;2024-01-25T09:05:48;40.93;;;8.10;;
67861;SDS011;54665;51.462;6.698;2024-01-25T09:07:48;35.13;;;6.60;;
67861;SDS011;54665;51.462;6.698;2024-01-25T09:09:49;33.23;;;7.57;;
67861;SDS011;54665;51.462;6.698;2024-01-25T09:11:49;35.60;;;7.27;;
67861;SDS011;54665;51.462;6.698;2024-01-25T09:13:49;43.73;;;8.17;;
67861;SDS011;54665;51.462;6.698;2024-01-25T09:15:50;34.17;;;6.00;;
67861;SDS011;54665;51.462;6.698;2024-01-25T09:17:50;44.07;;;8.23;;
67861;SDS011;54665;51.462;6.698;2024-01-25T09:19:50;35.33;;;8.07;;
67861;SDS011;54665;51.462;6.698;2024-01-25T09:21:51;50.97;;;9.13;;
67861;SDS011;54665;51.462;6.698;2024-01-25T09:23:51;35.90;;;8.37;;
67861;SDS011;54665;51.462;6.698;2024-01-25T09:25:51;37.23;;;6.43;;
67861;SDS011;54665;51.462;6.698;2024-01-25T09:27:52;34.43;;;8.17;;
67861;SDS011;54665;51.462;6.698;2024-01-25T09:29:52;40.33;;;8.87;;
67861;SDS011;54665;51.462;6.698;2024-01-25T09:31:52;36.23;;;7.13;;
67861;SDS011;54665;51.462;6.698;2024-01-25T09:33:53;31.50;;;5.80;;
67861;SDS011;54665;51.462;6.698;2024-01-25T09:35:53;47.43;;;8.40;;
67861;SDS011;54665;51.462;6.698;2024-01-25T09:37:53;49.33;;;9.00;;
67861;SDS011;54665;51.462;6.698;2024-01-25T09:39:53;41.93;;;8.60;;
67861;SDS011;54665;51.462;6.698;2024-01-25T09:41:54;35.50;;;7.93;;
67861;SDS011;54665;51.462;6.698;2024-01-25T09:43:54;38.78;;;10.02;;
67861;SDS011;54665;51.462;6.698;2024-01-25T09:45:54;36.80;;;9.00;;
67861;SDS011;54665;51.462;6.698;2024-01-25T09:47:55;36.83;;;9.27;;
67861;SDS011;54665;51.462;6.698;2024-01-25T09:49:55;29.60;;;7.03;;
67861;SDS011;54665;51.462;6.698;2024-01-25T09:51:55;43.50;;;8.30;;
67861;SDS011;54665;51.462;6.698;2024-01-25T09:53:56;45.73;;;9.67;;
67861;SDS011;54665;51.462;6.698;2024-01-25T09:56:00;42.67;;;10.23;;
67861;SDS011;54665;51.462;6.698;2024-01-25T09:58:05;36.63;;;9.30;;
67861;SDS011;54665;51.462;6.698;2024-01-25T10:00:06;43.22;;;10.88;;
67861;SDS011;54665;51.462;6.698;2024-01-25T10:02:07;44.83;;;10.13;;
67861;SDS011;54665;51.462;6.698;2024-01-25T10:04:09;40.77;;;10.13;;
67861;SDS011;54665;51.462;6.698;2024-01-25T10:06:10;49.10;;;10.63;;
67861;SDS011;54665;51.462;6.698;2024-01-25T10:08:14;40.10;;;10.03;;
67861;SDS011;54665;51.462;6.698;2024-01-25T10:10:14;35.80;;;9.57;;
67861;SDS011;54665;51.462;6.698;2024-01-25T10:12:14;43.23;;;9.93;;
67861;SDS011;54665;51.462;6.698;2024-01-25T10:14:15;44.13;;;10.50;;
67861;SDS011;54665;51.462;6.698;2024-01-25T10:16:15;30.37;;;8.53;;
67861;SDS011;54665;51.462;6.698;2024-01-25T10:18:17;23.98;;;6.15;;
67861;SDS011;54665;51.462;6.698;2024-01-25T10:20:17;24.30;;;6.67;;
67861;SDS011;54665;51.462;6.698;2024-01-25T10:22:18;35.28;;;8.52;;
67861;SDS011;54665;51.462;6.698;2024-01-25T10:24:18;37.53;;;8.57;;
67861;SDS011;54665;51.462;6.698;2024-01-25T10:26:19;33.30;;;8.67;;
67861;SDS011;54665;51.462;6.698;2024-01-25T10:28:19;34.03;;;9.17;;
67861;SDS011;54665;51.462;6.698;2024-01-25T10:30:19;28.88;;;8.13;;
67861;SDS011;54665;51.462;6.698;2024-01-25T10:32:20;36.83;;;9.23;;
67861;SDS011;54665;51.462;6.698;2024-01-25T10:34:20;40.90;;;9.90;;
67861;SDS011;54665;51.462;6.698;2024-01-25T10:36:22;34.10;;;9.27;;
67861;SDS011;54665;51.462;6.698;2024-01-25T10:38:23;37.03;;;10.13;;
67861;SDS011;54665;51.462;6.698;2024-01-25T10:40:26;43.70;;;11.30;;
67861;SDS011;54665;51.462;6.698;2024-01-25T10:42:28;32.60;;;9.13;;
67861;SDS011;54665;51.462;6.698;2024-01-25T10:44:28;30.57;;;9.30;;
67861;SDS011;54665;51.462;6.698;2024-01-25T10:46:28;38.13;;;9.70;;
67861;SDS011;54665;51.462;6.698;2024-01-25T10:48:29;31.38;;;8.48;;
67861;SDS011;54665;51.462;6.698;2024-01-25T10:50:30;38.67;;;9.13;;
67861;SDS011;54665;51.462;6.698;2024-01-25T10:52:31;36.43;;;9.13;;
67861;SDS011;54665;51.462;6.698;2024-01-25T10:54:31;39.30;;;9.47;;
67861;SDS011;54665;51.462;6.698;2024-01-25T10:56:34;42.13;;;10.10;;
67861;SDS011;54665;51.462;6.698;2024-01-25T10:58:35;34.15;;;9.35;;
67861;SDS011;54665;51.462;6.698;2024-01-25T11:00:35;35.00;;;8.70;;
67861;SDS011;54665;51.462;6.698;2024-01-25T11:02:35;41.47;;;9.73;;
67861;SDS011;54665;51.462;6.698;2024-01-25T11:04:36;36.25;;;9.48;;
67861;SDS011;54665;51.462;6.698;2024-01-25T11:06:36;33.30;;;10.27;;
67861;SDS011;54665;51.462;6.698;2024-01-25T11:08:37;39.30;;;9.70;;
67861;SDS011;54665;51.462;6.698;2024-01-25T11:10:38;34.92;;;9.70;;
67861;SDS011;54665;51.462;6.698;2024-01-25T11:12:54;27.70;;;8.77;;
67861;SDS011;54665;51.462;6.698;2024-01-25T11:14:55;37.55;;;10.45;;
67861;SDS011;54665;51.462;6.698;2024-01-25T11:16:55;35.67;;;9.17;;
67861;SDS011;54665;51.462;6.698;2024-01-25T11:18:56;37.33;;;10.20;;
67861;SDS011;54665;51.462;6.698;2024-01-25T11:20:59;34.95;;;9.65;;
67861;SDS011;54665;51.462;6.698;2024-01-25T11:23:04;38.70;;;9.52;;
67861;SDS011;54665;51.462;6.698;2024-01-25T11:25:20;32.58;;;10.02;;
67861;SDS011;54665;51.462;6.698;2024-01-25T11:27:21;45.35;;;11.27;;
67861;SDS011;54665;51.462;6.698;2024-01-25T11:29:22;32.67;;;7.60;;
67861;SDS011;54665;51.462;6.698;2024-01-25T11:31:22;34.27;;;10.37;;
67861;SDS011;54665;51.462;6.698;2024-01-25T11:33:22;38.25;;;11.20;;
67861;SDS011;54665;51.462;6.698;2024-01-25T11:35:23;38.53;;;11.03;;
67861;SDS011;54665;51.462;6.698;2024-01-25T11:37:23;43.50;;;11.13;;
67861;SDS011;54665;51.462;6.698;2024-01-25T11:39:23;40.63;;;11.43;;
67861;SDS011;54665;51.462;6.698;2024-01-25T11:41:24;41.17;;;11.67;;
67861;SDS011;54665;51.462;6.698;2024-01-25T11:43:24;40.10;;;11.18;;
67861;SDS011;54665;51.462;6.698;2024-01-25T11:45:25;43.17;;;11.33;;
67861;SDS011;54665;51.462;6.698;2024-01-25T11:47:25;37.83;;;10.63;;
67861;SDS011;54665;51.462;6.698;2024-01-25T11:49:26;38.47;;;10.60;;
67861;SDS011;54665;51.462;6.698;2024-01-25T11:51:26;37.40;;;10.93;;
67861;SDS011;54665;51.462;6.698;2024-01-25T11:53:26;36.77;;;10.77;;
67861;SDS011;54665;51.462;6.698;2024-01-25T11:55:26;39.73;;;10.70;;